KPIT/PIT METAR and TAF weather

Enter ICAO airport designator
Station Type Date Time Source
KPIT METAR 2019/05/25 08:51 UTC NOAA

KPIT 250851Z 00000KT 10SM SCT050 SCT070 16/13 A3009 RMK AO2 SLP192 T01560133 56003 $


Station Type Date Time Source
KPIT Decoded METAR 2019/05/25 08:51 UTC NOAA

GREATER PITTSBURGH INTERNATIONAL , PA, United States (KPIT) 40-29N 80-14W 357M
May 25, 2019 - 04:51 AM EDT / 2019.05.25 0851 UTC
Wind: Calm:0
Visibility: 10 mile(s):0
Sky conditions: partly cloudy
Temperature: 60.1 F (15.6 C)
Dew Point: 55.9 F (13.3 C)
Relative Humidity: 86%
Pressure (altimeter): 30.09 in. Hg (1018 hPa)
Pressure tendency: 0.01 inches (0.3 hPa) lower than three hours ago
ob: KPIT 250851Z 00000KT 10SM SCT050 SCT070 16/13 A3009 RMK AO2 SLP192 T01560133 56003
cycle: 9

Station Type Date Time Source
KPIT TAF 2019/05/25 09:57 UTC NOAA

TAF
AMD KPIT 250855Z 2509/2612 07003KT P6SM SCT080
FM251800 22012G18KT P6SM BKN050
FM252200 23012G20KT P6SM -RA VCTS BKN035CB
FM260200 23008KT P6SM BKN100
FM260800 24010KT P6SM VCSH BKN025

Example: see airport list